createdAt,value
2023-04-14T00:01:59.784Z,8.85
2023-04-14T00:04:28.404Z,8.87
2023-04-14T00:06:58.773Z,8.85
2023-04-14T00:09:27.329Z,8.83
2023-04-14T00:11:57.622Z,8.80
2023-04-14T00:14:26.030Z,8.74
2023-04-14T00:16:54.596Z,8.70
2023-04-14T00:19:23.096Z,8.61
2023-04-14T00:21:51.603Z,8.45
2023-04-14T00:24:20.048Z,8.36
2023-04-14T00:26:48.462Z,8.29
2023-04-14T00:29:18.321Z,8.15
2023-04-14T00:31:46.641Z,8.05
2023-04-14T00:34:15.073Z,7.99
2023-04-14T00:36:43.600Z,7.99
2023-04-14T00:39:11.988Z,7.91
2023-04-14T00:41:40.435Z,7.87
2023-04-14T00:44:08.815Z,7.87
2023-04-14T00:46:38.826Z,7.77
2023-04-14T00:49:07.886Z,7.92
2023-04-14T00:51:37.264Z,7.88
2023-04-14T00:54:09.013Z,7.85
2023-04-14T00:56:37.604Z,7.75
2023-04-14T00:59:08.324Z,7.69
2023-04-14T01:01:38.801Z,7.59
2023-04-14T01:04:08.032Z,7.49
2023-04-14T01:06:37.804Z,7.43
2023-04-14T01:09:06.600Z,7.39
2023-04-14T01:11:46.277Z,7.20
2023-04-14T01:14:24.348Z,7.41
2023-04-14T01:16:59.146Z,7.38
2023-04-14T01:19:43.914Z,7.35
2023-04-14T01:22:16.107Z,7.31
2023-04-14T01:25:07.651Z,7.35
2023-04-14T01:27:45.103Z,7.13
2023-04-14T01:30:46.877Z,7.18
2023-04-14T01:33:22.099Z,7.13
2023-04-14T01:35:58.300Z,7.11
2023-04-14T01:38:31.059Z,7.14
2023-04-14T01:41:04.235Z,7.18
2023-04-14T01:43:35.296Z,6.95
2023-04-14T01:46:08.995Z,7.02
2023-04-14T01:48:39.364Z,6.99
2023-04-14T01:51:09.302Z,6.93
2023-04-14T01:53:41.588Z,6.89
2023-04-14T01:56:13.247Z,6.77
2023-04-14T01:58:43.473Z,6.78
2023-04-14T02:01:13.627Z,6.73
2023-04-14T02:03:45.225Z,6.74
2023-04-14T02:06:14.816Z,6.59
2023-04-14T02:08:43.510Z,6.60
2023-04-14T02:11:15.156Z,6.50
2023-04-14T02:13:45.607Z,6.45
2023-04-14T02:16:15.463Z,6.42
2023-04-14T02:18:46.783Z,6.39
2023-04-14T02:21:17.659Z,6.29
2023-04-14T02:23:46.766Z,6.12
2023-04-14T02:26:17.376Z,6.06
2023-04-14T02:28:51.866Z,6.01
2023-04-14T02:31:23.905Z,5.92
2023-04-14T02:33:56.630Z,5.78
2023-04-14T02:36:32.514Z,5.76
2023-04-14T02:39:05.927Z,5.64
2023-04-14T02:41:34.828Z,5.58
2023-04-14T02:44:08.445Z,5.51
2023-04-14T02:46:50.431Z,5.41
2023-04-14T02:49:22.578Z,5.33
2023-04-14T02:51:53.442Z,5.24
2023-04-14T02:54:23.349Z,5.10
2023-04-14T02:56:52.797Z,4.99
2023-04-14T02:59:27.715Z,4.87
2023-04-14T03:02:04.770Z,4.77
2023-04-14T03:04:39.764Z,4.20
2023-04-14T03:07:15.956Z,4.61
2023-04-14T03:09:44.866Z,4.70
2023-04-14T03:12:16.814Z,4.79
2023-04-14T03:14:45.882Z,4.81
2023-04-14T03:17:17.720Z,4.77
2023-04-14T03:19:49.342Z,4.80
2023-04-14T03:22:19.325Z,4.74
2023-04-14T03:24:48.415Z,4.74
2023-04-14T03:27:26.377Z,4.73
2023-04-14T03:29:59.891Z,4.56
2023-04-14T03:32:34.380Z,4.48
2023-04-14T03:35:05.036Z,4.35
2023-04-14T03:37:37.554Z,4.26
2023-04-14T03:40:09.304Z,4.19
2023-04-14T03:42:41.688Z,4.14
2023-04-14T03:45:11.701Z,4.08
2023-04-14T03:47:42.084Z,4.03
2023-04-14T03:50:15.646Z,3.97
2023-04-14T03:52:45.183Z,3.71
2023-04-14T03:55:15.176Z,3.75
2023-04-14T03:57:45.798Z,3.76
2023-04-14T04:00:16.493Z,3.84
2023-04-14T04:02:48.675Z,3.90
2023-04-14T04:05:19.457Z,3.90
2023-04-14T04:07:48.299Z,3.90
2023-04-14T04:10:17.662Z,3.92
2023-04-14T04:12:48.990Z,3.95
2023-04-14T04:15:18.587Z,3.87
2023-04-14T04:17:50.504Z,3.78
2023-04-14T04:20:23.380Z,3.68
2023-04-14T04:22:54.104Z,3.60
2023-04-14T04:25:22.560Z,3.56
2023-04-14T04:28:01.235Z,3.59
2023-04-14T04:30:32.422Z,3.56
2023-04-14T04:33:03.881Z,3.55
2023-04-14T04:35:35.878Z,3.53
2023-04-14T04:38:06.994Z,3.40
2023-04-14T04:40:38.884Z,3.36
2023-04-14T04:43:13.463Z,3.30
2023-04-14T04:46:00.954Z,3.24
2023-04-14T04:48:30.695Z,3.22
2023-04-14T04:51:00.438Z,3.19
2023-04-14T04:53:28.881Z,3.22
2023-04-14T04:55:57.501Z,3.19
2023-04-14T04:58:25.947Z,3.09
2023-04-14T05:00:54.868Z,3.11
2023-04-14T05:03:23.392Z,3.08
2023-04-14T05:05:51.745Z,3.03
2023-04-14T05:08:21.777Z,2.99
2023-04-14T05:10:50.219Z,2.94
2023-04-14T05:13:18.657Z,2.89
2023-04-14T05:15:47.195Z,2.91
2023-04-14T05:18:15.675Z,2.93
2023-04-14T05:20:44.075Z,2.92
2023-04-14T05:23:13.539Z,2.87
2023-04-14T05:25:43.402Z,2.90
2023-04-14T05:28:14.068Z,2.95
2023-04-14T05:30:42.474Z,3.02
2023-04-14T05:33:11.879Z,2.98
2023-04-14T05:35:40.619Z,3.07
2023-04-14T05:38:09.142Z,3.28
2023-04-14T05:40:37.698Z,3.38
2023-04-14T05:43:07.703Z,3.44
2023-04-14T05:45:36.220Z,3.50
2023-04-14T05:48:05.049Z,3.54
2023-04-14T05:50:35.037Z,3.60
2023-04-14T05:53:03.380Z,3.79
2023-04-14T05:55:32.575Z,3.98
2023-04-14T05:58:01.019Z,4.28
2023-04-14T06:00:31.227Z,4.56
2023-04-14T06:02:59.848Z,4.83
2023-04-14T06:05:28.563Z,4.92
2023-04-14T06:07:57.186Z,5.12
2023-04-14T06:10:25.537Z,5.35
2023-04-14T06:12:53.856Z,5.51
2023-04-14T06:15:22.240Z,5.76
2023-04-14T06:17:52.373Z,6.01
2023-04-14T06:20:22.044Z,6.33
2023-04-14T06:22:50.620Z,6.65
2023-04-14T06:25:19.063Z,7.06
2023-04-14T06:27:47.379Z,7.56
2023-04-14T06:30:17.073Z,8.14
2023-04-14T06:32:45.729Z,8.76
2023-04-14T06:35:29.515Z,9.28
2023-04-14T06:38:00.782Z,9.85
2023-04-14T06:40:29.233Z,10.44
2023-04-14T06:42:57.728Z,11.24
2023-04-14T06:45:26.370Z,11.89
2023-04-14T06:47:55.003Z,12.70
2023-04-14T06:50:24.796Z,13.24
2023-04-14T06:52:53.130Z,13.95
2023-04-14T06:55:21.884Z,14.59
2023-04-14T06:57:50.387Z,15.12
2023-04-14T07:00:19.723Z,15.65
2023-04-14T07:02:48.329Z,16.15
2023-04-14T07:05:17.429Z,16.37
2023-04-14T07:07:47.206Z,16.83
2023-04-14T07:10:15.724Z,16.98
2023-04-14T07:12:44.092Z,17.27
2023-04-14T07:15:14.411Z,17.47
2023-04-14T07:17:43.855Z,17.67
2023-04-14T07:20:12.746Z,17.82
2023-04-14T07:22:41.177Z,17.89
2023-04-14T07:25:11.539Z,17.90
2023-04-14T07:27:47.164Z,17.69
2023-04-14T07:30:21.730Z,17.45
2023-04-14T07:32:50.074Z,17.12
2023-04-14T07:35:19.749Z,16.56
2023-04-14T07:37:48.100Z,16.40
2023-04-14T07:40:17.889Z,16.34
2023-04-14T07:42:46.520Z,16.22
2023-04-14T07:45:14.868Z,16.03
2023-04-14T07:47:43.312Z,15.90
2023-04-14T07:50:12.117Z,15.74
2023-04-14T07:52:40.615Z,15.67
2023-04-14T07:55:09.167Z,15.54
2023-04-14T07:57:39.165Z,15.25
2023-04-14T08:00:09.808Z,15.22
2023-04-14T08:02:40.970Z,15.09
2023-04-14T08:05:09.608Z,15.05
2023-04-14T08:07:38.804Z,14.97
2023-04-14T08:10:08.034Z,14.76
2023-04-14T08:12:36.650Z,14.76
2023-04-14T08:15:07.088Z,14.66
2023-04-14T08:17:35.515Z,14.61
2023-04-14T08:20:04.046Z,14.57
2023-04-14T08:22:32.478Z,14.36
2023-04-14T08:25:01.002Z,14.44
2023-04-14T08:27:29.410Z,14.52
2023-04-14T08:29:57.837Z,14.53
2023-04-14T08:32:28.591Z,14.47
2023-04-14T08:35:39.190Z,14.48
2023-04-14T08:37:45.736Z,14.47
2023-04-14T08:40:17.012Z,14.53
2023-04-14T08:42:46.080Z,14.53
2023-04-14T08:45:14.976Z,14.53
2023-04-14T08:47:47.312Z,14.47
2023-04-14T08:50:19.792Z,14.43
2023-04-14T08:52:50.668Z,14.46
2023-04-14T08:55:20.673Z,14.57
2023-04-14T08:57:50.443Z,14.60
2023-04-14T09:00:20.000Z,14.63
2023-04-14T09:02:50.653Z,14.70
2023-04-14T09:05:20.225Z,14.52
2023-04-14T09:07:49.257Z,14.67
2023-04-14T09:10:18.713Z,14.83
2023-04-14T09:12:47.305Z,14.95
2023-04-14T09:15:17.061Z,14.70
2023-04-14T09:17:45.753Z,15.13
2023-04-14T09:20:34.645Z,15.25
2023-04-14T09:23:05.044Z,15.38
2023-04-14T09:25:34.454Z,15.47
2023-04-14T09:28:02.948Z,15.49
2023-04-14T09:30:32.536Z,15.53
2023-04-14T09:33:01.261Z,15.59
2023-04-14T09:35:46.598Z,15.74
2023-04-14T09:38:15.320Z,15.86
2023-04-14T09:40:45.165Z,15.96
2023-04-14T09:43:27.096Z,16.08
2023-04-14T09:45:56.747Z,15.99
2023-04-14T09:48:26.100Z,15.90
2023-04-14T09:51:00.588Z,15.93
2023-04-14T09:53:31.501Z,15.88
2023-04-14T09:56:02.812Z,15.90
2023-04-14T09:58:32.823Z,15.89
2023-04-14T10:01:01.399Z,15.87
2023-04-14T10:03:39.584Z,15.43
2023-04-14T10:06:10.951Z,15.77
2023-04-14T10:08:41.202Z,15.79
2023-04-14T10:11:20.145Z,15.82
2023-04-14T10:13:49.795Z,15.54
2023-04-14T10:16:18.511Z,15.75
2023-04-14T10:18:47.853Z,15.75
2023-04-14T10:21:18.210Z,15.79
2023-04-14T10:23:47.307Z,15.88
2023-04-14T10:26:16.062Z,15.89
2023-04-14T10:28:46.844Z,16.06
2023-04-14T10:31:20.346Z,16.11
2023-04-14T10:33:48.933Z,16.13
2023-04-14T10:36:26.739Z,16.49
2023-04-14T10:39:02.205Z,16.66
2023-04-14T10:41:46.071Z,16.86
2023-04-14T10:44:27.484Z,16.94
2023-04-14T10:46:56.936Z,17.00
2023-04-14T10:49:30.469Z,17.16
2023-04-14T10:52:02.657Z,17.30
2023-04-14T10:54:50.187Z,17.49
2023-04-14T10:57:20.196Z,17.59
2023-04-14T10:59:49.416Z,17.86
2023-04-14T11:02:30.495Z,17.99
2023-04-14T11:05:00.595Z,17.90
2023-04-14T11:07:32.822Z,17.89
2023-04-14T11:10:22.016Z,17.85
2023-04-14T11:12:57.520Z,18.21
2023-04-14T11:15:26.087Z,18.31
2023-04-14T11:17:55.221Z,18.30
2023-04-14T11:20:24.376Z,18.35
2023-04-14T11:22:54.905Z,18.39
2023-04-14T11:25:24.776Z,18.30
2023-04-14T11:27:54.093Z,18.16
2023-04-14T11:30:23.128Z,17.99
2023-04-14T11:32:53.722Z,17.86
2023-04-14T11:35:25.537Z,17.82
2023-04-14T11:37:56.301Z,17.59
2023-04-14T11:40:26.607Z,17.39
2023-04-14T11:42:56.578Z,17.69
2023-04-14T11:45:29.182Z,17.56
2023-04-14T11:47:59.517Z,17.52
2023-04-14T11:50:29.044Z,17.58
2023-04-14T11:52:59.933Z,17.70
2023-04-14T11:55:29.063Z,17.92
2023-04-14T11:57:58.246Z,18.46
2023-04-14T12:00:28.215Z,18.82
2023-04-14T12:02:57.937Z,19.02
2023-04-14T12:05:31.267Z,19.13
2023-04-14T12:08:03.270Z,19.06
2023-04-14T12:10:32.250Z,19.09
2023-04-14T12:13:02.152Z,19.05
2023-04-14T12:15:31.677Z,18.96
2023-04-14T12:18:00.666Z,18.83
2023-04-14T12:20:30.486Z,18.68
2023-04-14T12:23:04.660Z,18.53
2023-04-14T12:25:34.169Z,18.72
2023-04-14T12:28:06.547Z,18.84
2023-04-14T12:30:36.020Z,18.84
2023-04-14T12:33:11.526Z,18.79
2023-04-14T12:35:40.763Z,18.61
2023-04-14T12:38:14.810Z,18.71
2023-04-14T12:40:46.126Z,18.59
2023-04-14T12:43:15.249Z,18.47
2023-04-14T12:45:45.112Z,18.41
2023-04-14T12:48:14.454Z,18.45
2023-04-14T12:50:42.921Z,18.73
2023-04-14T12:53:29.637Z,18.82
2023-04-14T12:56:08.951Z,18.53
2023-04-14T12:58:38.060Z,18.56
2023-04-14T13:01:08.000Z,18.53
2023-04-14T13:03:46.479Z,18.55
2023-04-14T13:06:18.097Z,18.55
2023-04-14T13:08:49.341Z,18.55
2023-04-14T13:11:19.107Z,18.66
2023-04-14T13:13:48.565Z,18.91
2023-04-14T13:16:19.397Z,19.11
2023-04-14T13:18:49.459Z,19.05
2023-04-14T13:21:18.019Z,19.24
2023-04-14T13:23:48.113Z,19.33
2023-04-14T13:26:16.546Z,19.18
2023-04-14T13:28:45.216Z,18.97
2023-04-14T13:31:17.479Z,18.77
2023-04-14T13:33:46.246Z,18.57
2023-04-14T13:36:14.692Z,18.44
2023-04-14T13:38:43.257Z,18.32
2023-04-14T13:41:15.419Z,18.48
2023-04-14T13:43:44.054Z,18.62
2023-04-14T13:46:12.886Z,18.73
2023-04-14T13:48:41.696Z,18.90
2023-04-14T13:51:10.065Z,19.05
2023-04-14T13:53:38.583Z,19.08
2023-04-14T13:56:07.277Z,19.07
2023-04-14T13:58:38.579Z,19.33
2023-04-14T14:01:11.423Z,19.00
2023-04-14T14:03:41.375Z,19.19
2023-04-14T14:06:10.084Z,19.06
2023-04-14T14:08:38.587Z,18.82
2023-04-14T14:11:07.264Z,18.77
2023-04-14T14:13:39.852Z,18.53
2023-04-14T14:16:10.080Z,18.28
2023-04-14T14:18:38.645Z,18.07
2023-04-14T14:21:07.385Z,17.80
2023-04-14T14:23:35.824Z,17.43
2023-04-14T14:26:04.268Z,17.10
2023-04-14T14:28:32.772Z,16.97
2023-04-14T14:31:03.849Z,16.88
2023-04-14T14:33:34.016Z,16.77
2023-04-14T14:36:02.854Z,16.52
2023-04-14T14:38:31.485Z,16.31
2023-04-14T14:40:59.853Z,16.14
2023-04-14T14:43:30.286Z,15.99
2023-04-14T14:45:58.772Z,15.87
2023-04-14T14:48:28.791Z,15.80
2023-04-14T14:50:57.157Z,15.72
2023-04-14T14:53:25.545Z,15.70
2023-04-14T14:55:53.899Z,15.63
2023-04-14T14:58:22.695Z,15.58
2023-04-14T15:00:51.239Z,15.56
2023-04-14T15:03:20.607Z,15.52
2023-04-14T15:05:52.881Z,15.47
2023-04-14T15:08:21.623Z,15.40
2023-04-14T15:10:52.251Z,15.36
2023-04-14T15:13:21.150Z,15.33
2023-04-14T15:15:49.503Z,15.32
2023-04-14T15:18:17.978Z,15.27
2023-04-14T15:20:46.334Z,15.21
2023-04-14T15:23:16.239Z,14.94
2023-04-14T15:25:44.662Z,15.03
2023-04-14T15:28:14.459Z,14.93
2023-04-14T15:30:43.014Z,14.84
2023-04-14T15:33:11.478Z,14.81
2023-04-14T15:35:40.569Z,14.78
2023-04-14T15:38:08.899Z,14.71
2023-04-14T15:40:39.945Z,14.68
2023-04-14T15:43:08.552Z,14.64
2023-04-14T15:45:37.003Z,14.56
2023-04-14T15:48:05.642Z,14.50
2023-04-14T15:50:34.066Z,14.49
2023-04-14T15:53:13.384Z,14.45
2023-04-14T15:55:44.519Z,14.36
2023-04-14T15:58:12.944Z,14.35
2023-04-14T16:00:41.652Z,14.38
2023-04-14T16:03:12.094Z,14.41
2023-04-14T16:05:40.949Z,14.47
2023-04-14T16:08:09.531Z,14.51
2023-04-14T16:10:40.611Z,14.54
2023-04-14T16:13:10.658Z,14.55
2023-04-14T16:15:39.057Z,14.56
2023-04-14T16:18:07.523Z,14.61
2023-04-14T16:20:35.983Z,14.63
2023-04-14T16:23:04.327Z,14.62
2023-04-14T16:25:32.766Z,14.65
2023-04-14T16:28:01.166Z,14.68
2023-04-14T16:30:30.924Z,14.73
2023-04-14T16:32:59.338Z,14.75
2023-04-14T16:35:27.709Z,14.81
2023-04-14T16:37:56.193Z,14.83
2023-04-14T16:40:24.751Z,14.89
2023-04-14T16:42:53.218Z,14.91
2023-04-14T16:45:21.572Z,14.90
2023-04-14T16:47:51.467Z,14.86
2023-04-14T16:50:19.898Z,14.86
2023-04-14T16:52:48.290Z,14.87
2023-04-14T16:55:17.149Z,14.85
2023-04-14T16:57:45.591Z,14.83
2023-04-14T17:00:14.911Z,14.78
2023-04-14T17:02:43.575Z,14.70
2023-04-14T17:05:16.223Z,14.74
2023-04-14T17:07:45.121Z,14.73
2023-04-14T17:10:14.286Z,14.64
2023-04-14T17:12:43.373Z,14.71
2023-04-14T17:15:12.330Z,14.67
2023-04-14T17:17:40.735Z,14.57
2023-04-14T17:20:10.637Z,14.55
2023-04-14T17:22:40.534Z,14.49
2023-04-14T17:25:10.893Z,14.46
2023-04-14T17:27:39.397Z,14.43
2023-04-14T17:30:10.878Z,14.44
2023-04-14T17:32:41.842Z,14.41
2023-04-14T17:35:11.462Z,14.38
2023-04-14T17:37:41.753Z,14.40
2023-04-14T17:40:11.610Z,14.41
2023-04-14T17:42:40.053Z,14.42
2023-04-14T17:45:09.950Z,14.39
2023-04-14T17:47:39.994Z,14.35
2023-04-14T17:50:10.346Z,14.36
2023-04-14T17:52:40.478Z,14.34
2023-04-14T17:55:10.464Z,14.28
2023-04-14T17:57:39.348Z,14.23
2023-04-14T18:00:10.384Z,14.23
2023-04-14T18:02:41.909Z,14.26
2023-04-14T18:05:11.432Z,14.23
2023-04-14T18:07:43.363Z,13.86
2023-04-14T18:10:12.182Z,14.07
2023-04-14T18:12:41.507Z,13.99
2023-04-14T18:15:15.342Z,13.87
2023-04-14T18:17:43.923Z,13.74
2023-04-14T18:20:13.856Z,13.64
2023-04-14T18:22:43.776Z,13.59
2023-04-14T18:25:12.061Z,13.52
2023-04-14T18:30:12.924Z,13.36
2023-04-14T18:32:41.584Z,14.04
2023-04-14T18:35:10.573Z,13.65
2023-04-14T18:37:40.064Z,13.40
2023-04-14T18:40:10.960Z,13.29
2023-04-14T18:42:39.616Z,13.23
2023-04-14T18:45:09.119Z,13.19
2023-04-14T18:47:37.734Z,13.14
2023-04-14T18:50:07.651Z,13.10
2023-04-14T18:52:36.076Z,13.07
2023-04-14T18:55:05.136Z,13.06
2023-04-14T18:57:35.009Z,13.08
2023-04-14T19:00:07.169Z,13.05
2023-04-14T19:02:36.232Z,13.10
2023-04-14T19:05:04.980Z,13.08
2023-04-14T19:07:34.499Z,13.12
2023-04-14T19:10:05.078Z,13.08
2023-04-14T19:12:34.876Z,13.08
2023-04-14T19:15:03.736Z,13.09
2023-04-14T19:17:34.481Z,13.14
2023-04-14T19:20:03.018Z,13.14
2023-04-14T19:22:31.532Z,12.98
2023-04-14T19:24:59.992Z,13.16
2023-04-14T19:27:28.302Z,13.20
2023-04-14T19:29:58.263Z,13.25
2023-04-14T19:32:26.714Z,13.27
2023-04-14T19:34:55.148Z,13.29
2023-04-14T19:37:23.553Z,13.30
2023-04-14T19:39:51.967Z,13.29
2023-04-14T19:42:20.319Z,13.27
2023-04-14T19:44:48.735Z,13.23
2023-04-14T19:47:18.441Z,13.22
2023-04-14T19:49:47.013Z,13.19
2023-04-14T19:52:15.465Z,13.12
2023-04-14T19:54:44.604Z,13.08
2023-04-14T19:57:13.903Z,13.01
2023-04-14T19:59:42.619Z,12.99
2023-04-14T20:02:13.365Z,12.98
2023-04-14T20:04:45.136Z,12.97
2023-04-14T20:07:14.675Z,13.00
2023-04-14T20:09:46.708Z,12.99
2023-04-14T20:12:15.638Z,12.93
2023-04-14T20:14:45.151Z,12.92
2023-04-14T20:17:13.991Z,12.88
2023-04-14T20:19:44.669Z,12.86
2023-04-14T20:22:13.561Z,12.85
2023-04-14T20:24:41.994Z,12.85
2023-04-14T20:27:11.070Z,12.84
2023-04-14T20:29:39.380Z,12.87
2023-04-14T20:32:07.958Z,12.88
2023-04-14T20:34:36.342Z,12.87
2023-04-14T20:37:06.220Z,12.86
2023-04-14T20:39:34.691Z,12.86
2023-04-14T20:42:03.070Z,12.85
2023-04-14T20:44:31.721Z,12.80
2023-04-14T20:47:00.706Z,12.79
2023-04-14T20:49:29.664Z,12.77
2023-04-14T20:51:58.556Z,12.76
2023-04-14T20:54:28.882Z,12.75
2023-04-14T20:56:57.673Z,12.72
2023-04-14T20:59:26.374Z,12.68
2023-04-14T21:01:54.894Z,12.72
2023-04-14T21:04:24.302Z,12.73
2023-04-14T21:06:53.205Z,12.76
2023-04-14T21:09:25.138Z,12.77
2023-04-14T21:12:15.971Z,12.76
2023-04-14T21:15:29.090Z,12.74
2023-04-14T21:17:32.070Z,12.76
2023-04-14T21:20:00.486Z,12.79
2023-04-14T21:22:28.869Z,12.82
2023-04-14T21:24:57.177Z,12.81
2023-04-14T21:27:28.160Z,12.81
2023-04-14T21:29:56.618Z,12.75
2023-04-14T21:32:25.138Z,12.77
2023-04-14T21:34:53.592Z,12.79
2023-04-14T21:37:21.954Z,12.84
2023-04-14T21:39:50.443Z,12.87
2023-04-14T21:42:18.797Z,12.91
2023-04-14T21:44:49.394Z,12.93
2023-04-14T21:47:17.949Z,12.78
2023-04-14T21:49:46.315Z,12.99
2023-04-14T21:52:15.842Z,13.05
2023-04-14T21:54:46.274Z,13.04
2023-04-14T21:57:14.789Z,13.04
2023-04-14T21:59:43.182Z,13.02
2023-04-14T22:02:13.863Z,13.05
2023-04-14T22:04:42.491Z,13.03
2023-04-14T22:07:10.977Z,13.01
2023-04-14T22:09:39.498Z,12.99
2023-04-14T22:12:07.912Z,12.95
2023-04-14T22:14:37.175Z,12.94
2023-04-14T22:17:05.710Z,12.94
2023-04-14T22:19:35.896Z,12.93
2023-04-14T22:22:04.828Z,12.86
2023-04-14T22:24:33.644Z,12.84
2023-04-14T22:27:02.137Z,12.86
2023-04-14T22:29:30.480Z,12.88
2023-04-14T22:31:58.825Z,12.83
2023-04-14T22:34:27.294Z,12.83
2023-04-14T22:36:58.128Z,12.86
2023-04-14T22:39:26.626Z,12.84
2023-04-14T22:41:54.963Z,12.85
2023-04-14T22:44:23.461Z,12.84
2023-04-14T22:46:52.835Z,12.87
2023-04-14T22:49:21.564Z,12.87
2023-04-14T22:51:49.907Z,12.83
2023-04-14T22:54:19.704Z,12.86
2023-04-14T22:56:48.258Z,12.91
2023-04-14T22:59:16.947Z,12.94
2023-04-14T23:01:45.395Z,12.94
2023-04-14T23:04:13.972Z,12.94
2023-04-14T23:06:42.495Z,12.91
2023-04-14T23:09:10.973Z,12.94
2023-04-14T23:11:40.683Z,12.96
2023-04-14T23:14:09.024Z,12.96
2023-04-14T23:16:37.440Z,12.91
2023-04-14T23:19:06.060Z,12.94
2023-04-14T23:21:34.793Z,12.97
2023-04-14T23:24:03.225Z,12.97
2023-04-14T23:26:32.624Z,12.92
2023-04-14T23:29:02.778Z,12.89
2023-04-14T23:31:31.410Z,12.84
2023-04-14T23:33:59.871Z,12.85
2023-04-14T23:36:28.325Z,12.82
2023-04-14T23:38:56.642Z,12.18
2023-04-14T23:41:25.131Z,12.73
2023-04-14T23:43:53.490Z,12.68
2023-04-14T23:46:23.515Z,12.68
2023-04-14T23:48:53.307Z,12.66
2023-04-14T23:51:23.111Z,12.63
2023-04-14T23:53:51.836Z,12.57
2023-04-14T23:56:20.244Z,12.57
2023-04-14T23:58:48.730Z,12.50
